Terminal Aerodrome Forecast
Issued by NWS Charleston, WV

Current Version | Previous Version | Graphics & Text | Print | Product List | Glossary On
Versions: 1 2 3 4 5 6 7 8 9 10 11 12 13 14 15 16 17 18 19 20
000
FTUS41 KRLX 172300
TAFHTS
TAF
KHTS 172334Z 1800/1824 25015G21KT P6SM OVC029
     FM180600 26013G24KT P6SM OVC025
     FM181100 26013G24KT P6SM OVC040=

USA.gov is the U.S. government's official web portal to all federal, state and local government web resources and services.